PWSweather.com
Personal Weather Stations
Station Observations
REUBENS
Camas Prairie, Reubens, ID 83548

Camas PrairieReubens, ID 83548

Lat: 46.35417, Lon: -116.53167

Elevation: 3480

Station Type: Davis VantagePro 2

http://www.theobrienranch.com/wx/wx.htm

Latest ConditionsUpdated 6:00:01 PM PDT Monday, Mar 25, 2019
Currently Today's Max Today's Min Today's Average
Temperature 45.0°F7.2°C 45.1°F7.3°C 30.1°F-1.1°C 37.1°F2.8°C
Dew Point 33.1°F0.6°C 35.2°F1.8°C 29.1°F-1.6°C 32.2°F0.1°C
Winds 9.2 mph SE14.8 kmh SE 17.3 mph -27.8 kmh - - 9.5 mph 15.3 kmh
Wind Gusts 11.5 mph18.5 kmh 23.0 mph37.0 kmh - -
Humidity 63% 97% 62% 84%
Pressure 30.11 in1019.6 mb 30.41 in1029.8 mb 30.11 in1019.6 mb -
Precipitation - 0.01 in0.3 mm - -
Hour Temp Dew Point Humidity Winds Wind Gusts Pressure Precip Precip Rate Daily Precip Total
06:00 PM 45.0°F7.2°C 33.1°F0.6°C 63% 9.2 mph SE14.8 kmh SE 11.5 mph18.5 kmh 30.11 in1019.6 mb - 0.00 in0.0 mm 0.01 in0.3 mm
05:45 PM 41.9°F5.5°C 32.5°F0.3°C 69% 6.9 mph ESE11.1 kmh ESE 9.2 mph14.8 kmh 30.12 in1020.0 mb - 0.00 in0.0 mm 0.01 in0.3 mm
05:30 PM 44.4°F6.9°C 33.0°F0.6°C 64% 10.4 mph ESE16.7 kmh ESE 11.5 mph18.5 kmh 30.12 in1020.0 mb - 0.00 in0.0 mm 0.01 in0.3 mm
05:15 PM 44.2°F6.8°C 32.4°F0.2°C 63% 11.5 mph E18.5 kmh E 11.5 mph18.5 kmh 30.12 in1020.0 mb - 0.00 in0.0 mm 0.01 in0.3 mm
05:00 PM 44.8°F7.1°C 32.5°F0.3°C 62% 10.4 mph E16.7 kmh E 11.5 mph18.5 kmh 30.12 in1020.0 mb - 0.00 in0.0 mm 0.01 in0.3 mm
04:45 PM 44.3°F6.8°C 32.1°F0.1°C 62% 13.8 mph E22.2 kmh E 15.0 mph24.1 kmh 30.13 in1020.3 mb - 0.00 in0.0 mm 0.01 in0.3 mm
04:30 PM 45.1°F7.3°C 33.2°F0.7°C 63% 10.4 mph E16.7 kmh E 12.7 mph20.4 kmh 30.13 in1020.3 mb - 0.00 in0.0 mm 0.01 in0.3 mm
04:15 PM 44.5°F6.9°C 32.7°F0.4°C 63% 11.5 mph E18.5 kmh E 15.0 mph24.1 kmh 30.15 in1021.0 mb - 0.00 in0.0 mm 0.01 in0.3 mm
04:00 PM 44.0°F6.7°C 33.4°F0.8°C 66% 10.4 mph E16.7 kmh E 11.5 mph18.5 kmh 30.16 in1021.3 mb - 0.00 in0.0 mm 0.01 in0.3 mm
03:45 PM 44.0°F6.7°C 33.4°F0.8°C 66% 11.5 mph ESE18.5 kmh ESE 15.0 mph24.1 kmh 30.17 in1021.7 mb - 0.00 in0.0 mm 0.01 in0.3 mm
03:30 PM 43.6°F6.4°C 34.1°F1.2°C 69% 12.7 mph E20.4 kmh E 13.8 mph22.2 kmh 30.18 in1022.0 mb - 0.00 in0.0 mm 0.01 in0.3 mm
03:15 PM 43.5°F6.4°C 34.7°F1.5°C 71% 11.5 mph E18.5 kmh E 13.8 mph22.2 kmh 30.18 in1022.0 mb - 0.00 in0.0 mm 0.01 in0.3 mm
03:00 PM 43.9°F6.6°C 35.1°F1.7°C 71% 12.7 mph E20.4 kmh E 13.8 mph22.2 kmh 30.19 in1022.4 mb - 0.00 in0.0 mm 0.01 in0.3 mm
02:45 PM 43.4°F6.3°C 35.0°F1.7°C 72% 13.8 mph ESE22.2 kmh ESE 15.0 mph24.1 kmh 30.21 in1023.0 mb - 0.00 in0.0 mm 0.01 in0.3 mm
02:30 PM 44.0°F6.7°C 35.2°F1.8°C 71% 10.4 mph E16.7 kmh E 11.5 mph18.5 kmh 30.21 in1023.0 mb - 0.00 in0.0 mm 0.01 in0.3 mm
02:15 PM 43.8°F6.6°C 34.6°F1.4°C 70% 11.5 mph E18.5 kmh E 11.5 mph18.5 kmh 30.23 in1023.7 mb - 0.00 in0.0 mm 0.01 in0.3 mm
02:00 PM 43.8°F6.6°C 34.3°F1.3°C 69% 10.4 mph ESE16.7 kmh ESE 11.5 mph18.5 kmh 30.22 in1023.4 mb - 0.00 in0.0 mm 0.01 in0.3 mm
01:45 PM 43.7°F6.5°C 33.5°F0.8°C 67% 17.3 mph ESE27.8 kmh ESE 19.6 mph31.5 kmh 30.22 in1023.4 mb - 0.00 in0.0 mm 0.01 in0.3 mm
01:30 PM 43.9°F6.6°C 32.5°F0.3°C 64% 15.0 mph ESE24.1 kmh ESE 18.4 mph29.6 kmh 30.24 in1024.0 mb - 0.00 in0.0 mm 0.01 in0.3 mm
01:15 PM 43.4°F6.3°C 31.6°F-0.2°C 63% 13.8 mph ESE22.2 kmh ESE 16.1 mph25.9 kmh 30.24 in1024.0 mb - 0.00 in0.0 mm 0.01 in0.3 mm
01:00 PM 43.2°F6.2°C 31.1°F-0.5°C 62% 13.8 mph ESE22.2 kmh ESE 12.7 mph20.4 kmh 30.26 in1024.7 mb - 0.00 in0.0 mm 0.01 in0.3 mm
12:45 PM 42.1°F5.6°C 31.2°F-0.4°C 65% 15.0 mph E24.1 kmh E 16.1 mph25.9 kmh 30.26 in1024.7 mb - 0.00 in0.0 mm 0.01 in0.3 mm
12:30 PM 41.8°F5.4°C 30.5°F-0.8°C 64% 16.1 mph E25.9 kmh E 17.3 mph27.8 kmh 30.27 in1025.1 mb - 0.00 in0.0 mm 0.01 in0.3 mm
12:15 PM 41.5°F5.3°C 32.1°F0.1°C 69% 13.8 mph ESE22.2 kmh ESE 18.4 mph29.6 kmh 30.29 in1025.7 mb - 0.00 in0.0 mm 0.01 in0.3 mm
12:00 PM 41.1°F5.1°C 32.4°F0.2°C 71% 15.0 mph ESE24.1 kmh ESE 17.3 mph27.8 kmh 30.30 in1026.1 mb - 0.00 in0.0 mm 0.01 in0.3 mm
11:45 AM 40.4°F4.7°C 33.4°F0.8°C 76% 13.8 mph ESE22.2 kmh ESE 16.1 mph25.9 kmh 30.30 in1026.1 mb - 0.00 in0.0 mm 0.01 in0.3 mm
11:30 AM 39.9°F4.4°C 33.6°F0.9°C 78% 17.3 mph ESE27.8 kmh ESE 18.4 mph29.6 kmh 30.30 in1026.1 mb - 0.00 in0.0 mm 0.01 in0.3 mm
11:15 AM 38.3°F3.5°C 33.3°F0.7°C 82% 16.1 mph ESE25.9 kmh ESE 17.3 mph27.8 kmh 30.30 in1026.1 mb - 0.00 in0.0 mm 0.01 in0.3 mm
11:00 AM 37.9°F3.3°C 32.9°F0.5°C 82% 17.3 mph ESE27.8 kmh ESE 23.0 mph37.0 kmh 30.30 in1026.1 mb - 0.00 in0.0 mm 0.01 in0.3 mm
10:45 AM 37.6°F3.1°C 33.2°F0.7°C 84% 16.1 mph ESE25.9 kmh ESE 17.3 mph27.8 kmh 30.30 in1026.1 mb - 0.00 in0.0 mm 0.01 in0.3 mm
10:30 AM 36.6°F2.6°C 33.1°F0.6°C 87% 15.0 mph ESE24.1 kmh ESE 16.1 mph25.9 kmh 30.31 in1026.4 mb - 0.00 in0.0 mm 0.01 in0.3 mm
10:15 AM 36.6°F2.6°C 33.4°F0.8°C 88% 12.7 mph E20.4 kmh E 13.8 mph22.2 kmh 30.32 in1026.8 mb - 0.00 in0.0 mm 0.01 in0.3 mm
10:00 AM 36.8°F2.7°C 33.6°F0.9°C 88% 12.7 mph E20.4 kmh E 12.7 mph20.4 kmh 30.32 in1026.8 mb - 0.00 in0.0 mm 0.01 in0.3 mm
09:45 AM 36.9°F2.7°C 33.3°F0.7°C 87% 12.7 mph ESE20.4 kmh ESE 15.0 mph24.1 kmh 30.32 in1026.8 mb - 0.00 in0.0 mm 0.01 in0.3 mm
09:30 AM 36.6°F2.6°C 33.1°F0.6°C 87% 13.8 mph ESE22.2 kmh ESE 13.8 mph22.2 kmh 30.33 in1027.1 mb - 0.00 in0.0 mm 0.01 in0.3 mm
09:15 AM 36.4°F2.4°C 33.2°F0.7°C 88% 12.7 mph E20.4 kmh E 15.0 mph24.1 kmh 30.33 in1027.1 mb - 0.00 in0.0 mm 0.01 in0.3 mm
09:00 AM 36.4°F2.4°C 33.2°F0.7°C 88% 11.5 mph E18.5 kmh E 12.7 mph20.4 kmh 30.34 in1027.4 mb - 0.00 in0.0 mm 0.01 in0.3 mm
08:45 AM 36.0°F2.2°C 32.8°F0.4°C 88% 10.4 mph E16.7 kmh E 11.5 mph18.5 kmh 30.34 in1027.4 mb - 0.00 in0.0 mm 0.01 in0.3 mm
08:30 AM 35.9°F2.2°C 33.0°F0.6°C 89% 12.7 mph ESE20.4 kmh ESE 13.8 mph22.2 kmh 30.34 in1027.4 mb - 0.00 in0.0 mm 0.01 in0.3 mm
08:15 AM 33.9°F1.1°C 31.5°F-0.3°C 91% 9.2 mph ESE14.8 kmh ESE 10.4 mph16.7 kmh 30.35 in1027.8 mb - 0.00 in0.0 mm 0.01 in0.3 mm
08:00 AM 33.8°F1.0°C 31.4°F-0.3°C 91% 6.9 mph E11.1 kmh E 6.9 mph11.1 kmh 30.35 in1027.8 mb - 0.00 in0.0 mm 0.01 in0.3 mm
07:45 AM 33.3°F0.7°C 31.0°F-0.6°C 91% 9.2 mph ESE14.8 kmh ESE 10.4 mph16.7 kmh 30.36 in1028.1 mb - 0.00 in0.0 mm 0.01 in0.3 mm
07:30 AM 32.2°F0.1°C 30.4°F-0.9°C 93% 8.1 mph SE13.0 kmh SE 10.4 mph16.7 kmh 30.37 in1028.4 mb - 0.00 in0.0 mm 0.01 in0.3 mm
07:15 AM 31.4°F-0.3°C 30.2°F-1.0°C 95% 5.8 mph ESE9.3 kmh ESE 6.9 mph11.1 kmh 30.37 in1028.4 mb - 0.00 in0.0 mm 0.01 in0.3 mm
07:00 AM 30.6°F-0.8°C 29.6°F-1.3°C 96% 4.6 mph SE7.4 kmh SE 4.6 mph7.4 kmh 30.38 in1028.8 mb - 0.00 in0.0 mm 0.01 in0.3 mm
06:45 AM 30.4°F-0.9°C 29.1°F-1.6°C 95% 5.8 mph SE9.3 kmh SE 5.8 mph9.3 kmh 30.38 in1028.8 mb - 0.00 in0.0 mm 0.01 in0.3 mm
06:30 AM 30.4°F-0.9°C 29.4°F-1.4°C 96% 9.2 mph E14.8 kmh E 10.4 mph16.7 kmh 30.38 in1028.8 mb - 0.00 in0.0 mm 0.01 in0.3 mm
06:15 AM 30.4°F-0.9°C 29.7°F-1.3°C 97% 10.4 mph E16.7 kmh E 10.4 mph16.7 kmh 30.38 in1028.8 mb - 0.00 in0.0 mm 0.01 in0.3 mm
06:00 AM 30.1°F-1.1°C 29.1°F-1.6°C 96% 6.9 mph ESE11.1 kmh ESE 8.1 mph13.0 kmh 30.38 in1028.8 mb - 0.00 in0.0 mm 0.01 in0.3 mm
05:45 AM 30.4°F-0.9°C 29.4°F-1.4°C 96% 5.8 mph E9.3 kmh E 8.1 mph13.0 kmh 30.39 in1029.1 mb - 0.00 in0.0 mm 0.01 in0.3 mm
05:30 AM 30.5°F-0.8°C 29.5°F-1.4°C 96% 5.8 mph E9.3 kmh E 6.9 mph11.1 kmh 30.39 in1029.1 mb - 0.00 in0.0 mm 0.01 in0.3 mm
05:15 AM 30.8°F-0.7°C 29.8°F-1.2°C 96% 6.9 mph ESE11.1 kmh ESE 9.2 mph14.8 kmh 30.39 in1029.1 mb - 0.00 in0.0 mm 0.01 in0.3 mm
05:00 AM 30.9°F-0.6°C 29.9°F-1.2°C 96% 5.8 mph ESE9.3 kmh ESE 5.8 mph9.3 kmh 30.38 in1028.8 mb - 0.00 in0.0 mm 0.01 in0.3 mm
04:45 AM 31.4°F-0.3°C 30.1°F-1.1°C 95% 4.6 mph ESE7.4 kmh ESE 5.8 mph9.3 kmh 30.38 in1028.8 mb - 0.00 in0.0 mm 0.01 in0.3 mm
04:30 AM 31.9°F-0.1°C 30.4°F-0.9°C 94% 4.6 mph SE7.4 kmh SE 4.6 mph7.4 kmh 30.39 in1029.1 mb - 0.00 in0.0 mm 0.01 in0.3 mm
04:15 AM 32.9°F0.5°C 31.9°F-0.1°C 96% 5.8 mph SE9.3 kmh SE 6.9 mph11.1 kmh 30.38 in1028.8 mb - 0.00 in0.0 mm 0.01 in0.3 mm
04:00 AM 32.8°F0.4°C 32.0°F0.0°C 97% 5.8 mph SE9.3 kmh SE 6.9 mph11.1 kmh 30.38 in1028.8 mb - 0.00 in0.0 mm 0.01 in0.3 mm
03:45 AM 33.1°F0.6°C 32.1°F0.1°C 96% 5.8 mph ESE9.3 kmh ESE 6.9 mph11.1 kmh 30.38 in1028.8 mb - 0.00 in0.0 mm 0.01 in0.3 mm
03:30 AM 32.6°F0.3°C 31.6°F-0.2°C 96% 4.6 mph ESE7.4 kmh ESE 4.6 mph7.4 kmh 30.39 in1029.1 mb - 0.00 in0.0 mm 0.01 in0.3 mm
03:15 AM 32.7°F0.4°C 31.7°F-0.2°C 96% 3.5 mph SE5.6 kmh SE 3.5 mph5.6 kmh 30.39 in1029.1 mb - 0.00 in0.0 mm 0.01 in0.3 mm
03:00 AM 33.4°F0.8°C 32.4°F0.2°C 96% 2.3 mph NE3.7 kmh NE 3.5 mph5.6 kmh 30.39 in1029.1 mb - 0.00 in0.0 mm 0.01 in0.3 mm
02:45 AM 33.4°F0.8°C 32.4°F0.2°C 96% 3.5 mph SE5.6 kmh SE 3.5 mph5.6 kmh 30.39 in1029.1 mb - 0.01 in0.3 mm 0.01 in0.3 mm
02:30 AM 33.4°F0.8°C 32.4°F0.2°C 96% 3.5 mph SE5.6 kmh SE 4.6 mph7.4 kmh 30.39 in1029.1 mb - 0.00 in0.0 mm 0.00 in0.0 mm
02:15 AM 34.0°F1.1°C 33.2°F0.7°C 97% 6.9 mph SE11.1 kmh SE 6.9 mph11.1 kmh 30.39 in1029.1 mb - 0.00 in0.0 mm 0.00 in0.0 mm
02:00 AM 33.7°F0.9°C 32.9°F0.5°C 97% 8.1 mph SE13.0 kmh SE 10.4 mph16.7 kmh 30.39 in1029.1 mb - 0.00 in0.0 mm 0.00 in0.0 mm
01:45 AM 33.6°F0.9°C 32.9°F0.5°C 97% 6.9 mph SE11.1 kmh SE 9.2 mph14.8 kmh 30.39 in1029.1 mb - 0.00 in0.0 mm 0.00 in0.0 mm
01:30 AM 32.8°F0.4°C 32.1°F0.1°C 97% 4.6 mph SE7.4 kmh SE 5.8 mph9.3 kmh 30.40 in1029.5 mb - 0.00 in0.0 mm 0.00 in0.0 mm
01:15 AM 31.9°F-0.1°C 31.1°F-0.5°C 97% 3.5 mph ESE5.6 kmh ESE 3.5 mph5.6 kmh 30.41 in1029.8 mb - 0.00 in0.0 mm 0.00 in0.0 mm
01:00 AM 31.7°F-0.2°C 30.7°F-0.7°C 96% 2.3 mph ENE3.7 kmh ENE 3.5 mph5.6 kmh 30.41 in1029.8 mb - 0.00 in0.0 mm 0.00 in0.0 mm
12:45 AM 32.8°F0.4°C 32.0°F0.0°C 97% 3.5 mph ENE5.6 kmh ENE 3.5 mph5.6 kmh 30.40 in1029.5 mb - 0.00 in0.0 mm 0.00 in0.0 mm
12:30 AM 32.8°F0.4°C 32.0°F0.0°C 97% 2.3 mph S3.7 kmh S 2.3 mph3.7 kmh 30.40 in1029.5 mb - 0.00 in0.0 mm 0.00 in0.0 mm
12:15 AM 32.2°F0.1°C 31.2°F-0.4°C 96% 2.3 mph SE3.7 kmh SE 3.5 mph5.6 kmh 30.41 in1029.8 mb - 0.00 in0.0 mm 0.00 in0.0 mm
12:00 AM 32.7°F0.4°C 32.0°F0.0°C 97% 3.5 mph ESE5.6 kmh ESE 3.5 mph5.6 kmh 30.41 in1029.8 mb - 0.00 in0.0 mm 0.00 in0.0 mm